sensor_id;sensor_type;location;lat;lon;timestamp;temperature;humidity
3281;DHT22;1652;51.318;6.202;2022-09-16T00:00:44;12.30;99.90
3281;DHT22;1652;51.318;6.202;2022-09-16T00:03:12;12.30;99.90
3281;DHT22;1652;51.318;6.202;2022-09-16T00:05:40;12.20;99.90
3281;DHT22;1652;51.318;6.202;2022-09-16T00:08:08;12.20;99.90
3281;DHT22;1652;51.318;6.202;2022-09-16T00:10:35;12.20;99.90
3281;DHT22;1652;51.318;6.202;2022-09-16T00:13:03;12.20;99.90
3281;DHT22;1652;51.318;6.202;2022-09-16T00:15:30;12.10;99.90
3281;DHT22;1652;51.318;6.202;2022-09-16T00:17:57;12.00;99.90
3281;DHT22;1652;51.318;6.202;2022-09-16T00:20:25;12.10;99.90
3281;DHT22;1652;51.318;6.202;2022-09-16T00:22:53;12.10;99.90
3281;DHT22;1652;51.318;6.202;2022-09-16T00:25:20;12.10;99.90
3281;DHT22;1652;51.318;6.202;2022-09-16T00:27:47;12.20;99.90
3281;DHT22;1652;51.318;6.202;2022-09-16T00:30:15;12.30;99.90
3281;DHT22;1652;51.318;6.202;2022-09-16T00:32:43;12.40;99.90
3281;DHT22;1652;51.318;6.202;2022-09-16T00:35:10;12.40;99.90
3281;DHT22;1652;51.318;6.202;2022-09-16T00:37:37;12.40;99.90
3281;DHT22;1652;51.318;6.202;2022-09-16T00:40:04;12.50;99.90
3281;DHT22;1652;51.318;6.202;2022-09-16T00:42:39;12.40;99.90
3281;DHT22;1652;51.318;6.202;2022-09-16T00:45:14;12.30;99.90
3281;DHT22;1652;51.318;6.202;2022-09-16T00:48:00;12.30;99.90
3281;DHT22;1652;51.318;6.202;2022-09-16T00:50:44;12.40;99.90
3281;DHT22;1652;51.318;6.202;2022-09-16T00:53:18;12.30;99.90
3281;DHT22;1652;51.318;6.202;2022-09-16T00:55:46;12.30;99.90
3281;DHT22;1652;51.318;6.202;2022-09-16T00:58:16;12.40;99.90
3281;DHT22;1652;51.318;6.202;2022-09-16T01:00:46;12.40;99.90
3281;DHT22;1652;51.318;6.202;2022-09-16T01:03:13;12.50;99.90
3281;DHT22;1652;51.318;6.202;2022-09-16T01:05:40;12.50;99.90
3281;DHT22;1652;51.318;6.202;2022-09-16T01:08:08;12.40;99.90
3281;DHT22;1652;51.318;6.202;2022-09-16T01:10:35;12.40;99.90
3281;DHT22;1652;51.318;6.202;2022-09-16T01:13:04;12.40;99.90
3281;DHT22;1652;51.318;6.202;2022-09-16T01:24:07;12.50;99.90
3281;DHT22;1652;51.318;6.202;2022-09-16T01:27:04;12.60;99.90
3281;DHT22;1652;51.318;6.202;2022-09-16T01:32:41;12.60;99.90
3281;DHT22;1652;51.318;6.202;2022-09-16T01:37:59;12.60;99.90
3281;DHT22;1652;51.318;6.202;2022-09-16T01:40:36;12.60;99.90
3281;DHT22;1652;51.318;6.202;2022-09-16T01:43:23;12.70;99.90
3281;DHT22;1652;51.318;6.202;2022-09-16T01:46:05;12.60;99.90
3281;DHT22;1652;51.318;6.202;2022-09-16T01:48:41;12.60;99.90
3281;DHT22;1652;51.318;6.202;2022-09-16T01:51:20;12.60;99.90
3281;DHT22;1652;51.318;6.202;2022-09-16T01:56:43;12.60;99.90
3281;DHT22;1652;51.318;6.202;2022-09-16T02:01:59;12.60;99.90
3281;DHT22;1652;51.318;6.202;2022-09-16T02:04:40;12.60;99.90
3281;DHT22;1652;51.318;6.202;2022-09-16T02:07:10;12.60;99.90
3281;DHT22;1652;51.318;6.202;2022-09-16T02:09:42;12.50;99.90
3281;DHT22;1652;51.318;6.202;2022-09-16T02:12:14;12.50;99.90
3281;DHT22;1652;51.318;6.202;2022-09-16T02:14:44;12.40;99.90
3281;DHT22;1652;51.318;6.202;2022-09-16T02:17:15;12.40;99.90
3281;DHT22;1652;51.318;6.202;2022-09-16T02:19:51;12.20;99.90
3281;DHT22;1652;51.318;6.202;2022-09-16T02:22:33;12.10;99.90
3281;DHT22;1652;51.318;6.202;2022-09-16T02:25:04;12.10;99.90
3281;DHT22;1652;51.318;6.202;2022-09-16T02:27:34;12.10;99.90
3281;DHT22;1652;51.318;6.202;2022-09-16T02:30:08;12.10;99.90
3281;DHT22;1652;51.318;6.202;2022-09-16T02:32:40;12.10;99.90
3281;DHT22;1652;51.318;6.202;2022-09-16T02:35:18;12.10;99.90
3281;DHT22;1652;51.318;6.202;2022-09-16T02:38:11;12.10;99.90
3281;DHT22;1652;51.318;6.202;2022-09-16T02:40:49;12.20;99.90
3281;DHT22;1652;51.318;6.202;2022-09-16T02:43:17;12.20;99.90
3281;DHT22;1652;51.318;6.202;2022-09-16T02:45:53;12.20;99.90
3281;DHT22;1652;51.318;6.202;2022-09-16T02:53:55;12.20;99.90
3281;DHT22;1652;51.318;6.202;2022-09-16T02:58:55;12.10;99.90
3281;DHT22;1652;51.318;6.202;2022-09-16T03:01:23;12.20;99.90
3281;DHT22;1652;51.318;6.202;2022-09-16T03:03:53;12.10;99.90
3281;DHT22;1652;51.318;6.202;2022-09-16T03:06:26;12.20;99.90
3281;DHT22;1652;51.318;6.202;2022-09-16T03:08:58;12.10;99.90
3281;DHT22;1652;51.318;6.202;2022-09-16T03:17:18;12.10;99.90
3281;DHT22;1652;51.318;6.202;2022-09-16T03:25:12;12.20;99.90
3281;DHT22;1652;51.318;6.202;2022-09-16T03:27:53;12.20;99.90
3281;DHT22;1652;51.318;6.202;2022-09-16T03:30:22;12.20;99.90
3281;DHT22;1652;51.318;6.202;2022-09-16T03:32:55;12.10;99.90
3281;DHT22;1652;51.318;6.202;2022-09-16T03:35:26;12.10;99.90
3281;DHT22;1652;51.318;6.202;2022-09-16T03:37:57;12.00;99.90
3281;DHT22;1652;51.318;6.202;2022-09-16T03:40:25;12.00;99.90
3281;DHT22;1652;51.318;6.202;2022-09-16T03:42:56;11.90;99.90
3281;DHT22;1652;51.318;6.202;2022-09-16T03:45:23;11.80;99.90
3281;DHT22;1652;51.318;6.202;2022-09-16T03:47:52;11.70;99.90
3281;DHT22;1652;51.318;6.202;2022-09-16T03:50:20;11.70;99.90
3281;DHT22;1652;51.318;6.202;2022-09-16T03:52:47;11.70;99.90
3281;DHT22;1652;51.318;6.202;2022-09-16T03:55:14;11.60;99.90
3281;DHT22;1652;51.318;6.202;2022-09-16T03:57:42;11.60;99.90
3281;DHT22;1652;51.318;6.202;2022-09-16T04:00:10;11.60;99.90
3281;DHT22;1652;51.318;6.202;2022-09-16T04:02:37;11.60;99.90
3281;DHT22;1652;51.318;6.202;2022-09-16T04:05:04;11.60;99.90
3281;DHT22;1652;51.318;6.202;2022-09-16T04:07:32;11.60;99.90
3281;DHT22;1652;51.318;6.202;2022-09-16T04:09:59;11.70;99.90
3281;DHT22;1652;51.318;6.202;2022-09-16T04:12:27;11.70;99.90
3281;DHT22;1652;51.318;6.202;2022-09-16T04:14:54;11.70;99.90
3281;DHT22;1652;51.318;6.202;2022-09-16T04:17:21;11.80;99.90
3281;DHT22;1652;51.318;6.202;2022-09-16T04:19:48;11.80;99.90
3281;DHT22;1652;51.318;6.202;2022-09-16T04:22:15;11.80;99.90
3281;DHT22;1652;51.318;6.202;2022-09-16T04:24:42;11.80;99.90
3281;DHT22;1652;51.318;6.202;2022-09-16T04:27:09;11.80;99.90
3281;DHT22;1652;51.318;6.202;2022-09-16T04:29:35;11.80;99.90
3281;DHT22;1652;51.318;6.202;2022-09-16T04:32:02;11.70;99.90
3281;DHT22;1652;51.318;6.202;2022-09-16T04:34:29;11.80;99.90
3281;DHT22;1652;51.318;6.202;2022-09-16T04:36:58;11.80;99.90
3281;DHT22;1652;51.318;6.202;2022-09-16T04:39:24;11.90;99.90
3281;DHT22;1652;51.318;6.202;2022-09-16T04:41:51;11.90;99.90
3281;DHT22;1652;51.318;6.202;2022-09-16T04:44:18;11.90;99.90
3281;DHT22;1652;51.318;6.202;2022-09-16T04:46:45;11.90;99.90
3281;DHT22;1652;51.318;6.202;2022-09-16T04:49:12;12.00;99.90
3281;DHT22;1652;51.318;6.202;2022-09-16T04:51:39;12.00;99.90
3281;DHT22;1652;51.318;6.202;2022-09-16T04:54:06;11.90;99.90
3281;DHT22;1652;51.318;6.202;2022-09-16T04:56:33;12.00;99.90
3281;DHT22;1652;51.318;6.202;2022-09-16T04:59:02;12.00;99.90
3281;DHT22;1652;51.318;6.202;2022-09-16T05:01:34;12.00;99.90
3281;DHT22;1652;51.318;6.202;2022-09-16T05:04:04;12.00;99.90
3281;DHT22;1652;51.318;6.202;2022-09-16T05:06:38;12.00;99.90
3281;DHT22;1652;51.318;6.202;2022-09-16T05:09:07;12.00;99.90
3281;DHT22;1652;51.318;6.202;2022-09-16T05:11:36;12.00;99.90
3281;DHT22;1652;51.318;6.202;2022-09-16T05:14:11;12.00;99.90
3281;DHT22;1652;51.318;6.202;2022-09-16T05:16:38;12.10;99.90
3281;DHT22;1652;51.318;6.202;2022-09-16T05:19:05;12.10;99.90
3281;DHT22;1652;51.318;6.202;2022-09-16T05:21:34;12.10;99.90
3281;DHT22;1652;51.318;6.202;2022-09-16T05:24:04;12.10;99.90
3281;DHT22;1652;51.318;6.202;2022-09-16T05:26:32;12.10;99.90
3281;DHT22;1652;51.318;6.202;2022-09-16T05:29:03;12.10;99.90
3281;DHT22;1652;51.318;6.202;2022-09-16T05:31:32;12.10;99.90
3281;DHT22;1652;51.318;6.202;2022-09-16T05:34:02;12.20;99.90
3281;DHT22;1652;51.318;6.202;2022-09-16T05:36:34;12.20;99.90
3281;DHT22;1652;51.318;6.202;2022-09-16T05:39:01;12.30;99.90
3281;DHT22;1652;51.318;6.202;2022-09-16T05:41:48;12.30;99.90
3281;DHT22;1652;51.318;6.202;2022-09-16T05:44:15;12.30;99.90
3281;DHT22;1652;51.318;6.202;2022-09-16T05:46:42;12.40;99.90
3281;DHT22;1652;51.318;6.202;2022-09-16T05:49:09;12.30;99.90
3281;DHT22;1652;51.318;6.202;2022-09-16T05:51:38;12.40;99.90
3281;DHT22;1652;51.318;6.202;2022-09-16T05:54:05;12.30;99.90
3281;DHT22;1652;51.318;6.202;2022-09-16T05:56:32;12.30;99.90
3281;DHT22;1652;51.318;6.202;2022-09-16T05:59:00;12.30;99.90
3281;DHT22;1652;51.318;6.202;2022-09-16T06:01:32;12.40;99.90
3281;DHT22;1652;51.318;6.202;2022-09-16T06:04:01;12.60;99.90
3281;DHT22;1652;51.318;6.202;2022-09-16T06:06:37;12.80;99.90
3281;DHT22;1652;51.318;6.202;2022-09-16T06:09:07;13.00;99.90
3281;DHT22;1652;51.318;6.202;2022-09-16T06:11:39;13.10;96.60
3281;DHT22;1652;51.318;6.202;2022-09-16T06:14:09;13.30;92.90
3281;DHT22;1652;51.318;6.202;2022-09-16T06:16:37;13.40;81.10
3281;DHT22;1652;51.318;6.202;2022-09-16T06:19:07;13.40;79.70
3281;DHT22;1652;51.318;6.202;2022-09-16T06:21:37;13.50;65.20
3281;DHT22;1652;51.318;6.202;2022-09-16T06:24:04;13.60;66.70
3281;DHT22;1652;51.318;6.202;2022-09-16T06:26:36;13.60;61.30
3281;DHT22;1652;51.318;6.202;2022-09-16T06:29:03;13.80;60.00
3281;DHT22;1652;51.318;6.202;2022-09-16T06:31:32;14.10;41.70
3281;DHT22;1652;51.318;6.202;2022-09-16T06:33:59;14.00;32.50
3281;DHT22;1652;51.318;6.202;2022-09-16T06:36:28;13.90;27.00
3281;DHT22;1652;51.318;6.202;2022-09-16T06:38:56;13.90;21.40
3281;DHT22;1652;51.318;6.202;2022-09-16T06:41:23;13.80;24.10
3281;DHT22;1652;51.318;6.202;2022-09-16T06:43:51;13.80;46.90
3281;DHT22;1652;51.318;6.202;2022-09-16T06:46:25;13.80;46.30
3281;DHT22;1652;51.318;6.202;2022-09-16T06:48:54;13.90;29.30
3281;DHT22;1652;51.318;6.202;2022-09-16T06:51:31;14.00;18.90
3281;DHT22;1652;51.318;6.202;2022-09-16T06:54:01;14.10;23.80
3281;DHT22;1652;51.318;6.202;2022-09-16T06:56:28;14.60;12.00
3281;DHT22;1652;51.318;6.202;2022-09-16T06:58:55;15.10;1.00
3281;DHT22;1652;51.318;6.202;2022-09-16T07:01:28;15.50;1.00
3281;DHT22;1652;51.318;6.202;2022-09-16T07:03:56;15.90;1.00
3281;DHT22;1652;51.318;6.202;2022-09-16T07:06:27;16.30;1.00
3281;DHT22;1652;51.318;6.202;2022-09-16T07:09:15;17.10;1.00
3281;DHT22;1652;51.318;6.202;2022-09-16T07:11:41;18.50;1.00
3281;DHT22;1652;51.318;6.202;2022-09-16T07:14:08;19.60;99.90
3281;DHT22;1652;51.318;6.202;2022-09-16T07:16:38;20.70;99.90
3281;DHT22;1652;51.318;6.202;2022-09-16T07:19:05;20.90;1.00
3281;DHT22;1652;51.318;6.202;2022-09-16T07:21:35;20.70;1.00
3281;DHT22;1652;51.318;6.202;2022-09-16T07:24:02;20.60;1.00
3281;DHT22;1652;51.318;6.202;2022-09-16T07:26:31;20.60;1.00
3281;DHT22;1652;51.318;6.202;2022-09-16T07:29:00;20.30;1.00
3281;DHT22;1652;51.318;6.202;2022-09-16T07:31:30;19.80;1.00
3281;DHT22;1652;51.318;6.202;2022-09-16T07:33:58;19.00;1.00
3281;DHT22;1652;51.318;6.202;2022-09-16T07:36:32;18.10;99.90
3281;DHT22;1652;51.318;6.202;2022-09-16T07:39:00;17.20;1.00
3281;DHT22;1652;51.318;6.202;2022-09-16T07:41:29;16.70;99.90
3281;DHT22;1652;51.318;6.202;2022-09-16T07:43:59;16.20;1.00
3281;DHT22;1652;51.318;6.202;2022-09-16T07:46:28;16.20;1.00
3281;DHT22;1652;51.318;6.202;2022-09-16T07:48:56;16.10;1.00
3281;DHT22;1652;51.318;6.202;2022-09-16T07:51:24;16.20;1.00
3281;DHT22;1652;51.318;6.202;2022-09-16T07:53:56;16.10;1.00
3281;DHT22;1652;51.318;6.202;2022-09-16T07:56:28;16.00;1.00
3281;DHT22;1652;51.318;6.202;2022-09-16T07:58:56;16.30;1.00
3281;DHT22;1652;51.318;6.202;2022-09-16T08:01:23;16.40;1.00
3281;DHT22;1652;51.318;6.202;2022-09-16T08:03:50;16.80;99.90
3281;DHT22;1652;51.318;6.202;2022-09-16T08:06:20;17.30;99.90
3281;DHT22;1652;51.318;6.202;2022-09-16T08:08:47;17.10;1.00
3281;DHT22;1652;51.318;6.202;2022-09-16T08:11:14;16.60;99.90
3281;DHT22;1652;51.318;6.202;2022-09-16T08:13:42;16.20;1.00
3281;DHT22;1652;51.318;6.202;2022-09-16T08:16:16;16.40;1.00
3281;DHT22;1652;51.318;6.202;2022-09-16T08:18:44;17.10;1.00
3281;DHT22;1652;51.318;6.202;2022-09-16T08:21:15;18.10;99.90
3281;DHT22;1652;51.318;6.202;2022-09-16T08:23:43;19.00;1.00
3281;DHT22;1652;51.318;6.202;2022-09-16T08:26:12;19.50;99.90
3281;DHT22;1652;51.318;6.202;2022-09-16T08:28:41;19.80;32.70
3281;DHT22;1652;51.318;6.202;2022-09-16T08:31:28;19.90;1.00
3281;DHT22;1652;51.318;6.202;2022-09-16T08:33:55;20.10;1.00
3281;DHT22;1652;51.318;6.202;2022-09-16T08:36:24;20.00;32.30
3281;DHT22;1652;51.318;6.202;2022-09-16T08:38:53;20.20;1.00
3281;DHT22;1652;51.318;6.202;2022-09-16T08:41:38;20.30;1.00
3281;DHT22;1652;51.318;6.202;2022-09-16T08:46:58;20.20;1.00
3281;DHT22;1652;51.318;6.202;2022-09-16T08:49:44;20.20;93.10
3281;DHT22;1652;51.318;6.202;2022-09-16T08:52:34;20.00;99.90
3281;DHT22;1652;51.318;6.202;2022-09-16T08:55:10;19.20;1.00
3281;DHT22;1652;51.318;6.202;2022-09-16T08:57:41;18.60;1.00
3281;DHT22;1652;51.318;6.202;2022-09-16T09:00:16;18.20;99.90
3281;DHT22;1652;51.318;6.202;2022-09-16T09:02:56;17.90;99.90
3281;DHT22;1652;51.318;6.202;2022-09-16T09:05:33;17.70;1.00
3281;DHT22;1652;51.318;6.202;2022-09-16T09:10:58;17.40;99.90
3281;DHT22;1652;51.318;6.202;2022-09-16T09:13:58;17.40;99.90
3281;DHT22;1652;51.318;6.202;2022-09-16T09:22:24;18.00;76.30
3281;DHT22;1652;51.318;6.202;2022-09-16T09:30:27;18.00;99.90
3281;DHT22;1652;51.318;6.202;2022-09-16T09:33:33;18.00;1.00
3281;DHT22;1652;51.318;6.202;2022-09-16T09:36:30;18.00;99.90
3281;DHT22;1652;51.318;6.202;2022-09-16T09:41:51;17.90;99.90
3281;DHT22;1652;51.318;6.202;2022-09-16T09:47:31;18.00;99.90
3281;DHT22;1652;51.318;6.202;2022-09-16T09:53:18;18.20;99.90
3281;DHT22;1652;51.318;6.202;2022-09-16T09:55:46;18.40;99.90
3281;DHT22;1652;51.318;6.202;2022-09-16T10:00:40;18.00;1.00
3281;DHT22;1652;51.318;6.202;2022-09-16T10:03:12;17.80;99.90
3281;DHT22;1652;51.318;6.202;2022-09-16T10:05:40;17.80;1.00
3281;DHT22;1652;51.318;6.202;2022-09-16T10:08:22;18.00;1.00
3281;DHT22;1652;51.318;6.202;2022-09-16T10:10:52;18.20;99.90
3281;DHT22;1652;51.318;6.202;2022-09-16T10:13:21;18.40;1.00
3281;DHT22;1652;51.318;6.202;2022-09-16T10:15:49;18.50;1.00
3281;DHT22;1652;51.318;6.202;2022-09-16T10:18:28;18.40;1.00
3281;DHT22;1652;51.318;6.202;2022-09-16T10:21:05;18.20;1.00
3281;DHT22;1652;51.318;6.202;2022-09-16T10:23:33;18.10;99.90
3281;DHT22;1652;51.318;6.202;2022-09-16T10:26:20;18.00;1.00
3281;DHT22;1652;51.318;6.202;2022-09-16T10:28:59;18.10;1.00
3281;DHT22;1652;51.318;6.202;2022-09-16T10:31:36;18.30;99.90
3281;DHT22;1652;51.318;6.202;2022-09-16T10:34:22;18.30;1.00
3281;DHT22;1652;51.318;6.202;2022-09-16T10:39:51;18.20;1.00
3281;DHT22;1652;51.318;6.202;2022-09-16T10:42:24;18.20;1.00
3281;DHT22;1652;51.318;6.202;2022-09-16T10:44:54;18.20;99.90
3281;DHT22;1652;51.318;6.202;2022-09-16T10:47:29;18.30;99.90
3281;DHT22;1652;51.318;6.202;2022-09-16T10:50:02;18.50;99.90
3281;DHT22;1652;51.318;6.202;2022-09-16T10:52:44;18.60;1.00
3281;DHT22;1652;51.318;6.202;2022-09-16T10:57:54;18.00;99.90
3281;DHT22;1652;51.318;6.202;2022-09-16T11:00:41;17.10;99.90
3281;DHT22;1652;51.318;6.202;2022-09-16T11:03:26;15.80;99.90
3281;DHT22;1652;51.318;6.202;2022-09-16T11:09:00;14.30;1.00
3281;DHT22;1652;51.318;6.202;2022-09-16T11:14:47;13.80;1.00
3281;DHT22;1652;51.318;6.202;2022-09-16T11:22:53;13.60;1.00
3281;DHT22;1652;51.318;6.202;2022-09-16T11:31:38;13.80;3.00
3281;DHT22;1652;51.318;6.202;2022-09-16T11:37:17;14.10;56.30
3281;DHT22;1652;51.318;6.202;2022-09-16T11:40:08;14.30;58.90
3281;DHT22;1652;51.318;6.202;2022-09-16T11:42:42;14.40;77.60
3281;DHT22;1652;51.318;6.202;2022-09-16T11:51:10;14.40;86.50
3281;DHT22;1652;51.318;6.202;2022-09-16T11:54:00;14.50;46.90
3281;DHT22;1652;51.318;6.202;2022-09-16T11:56:42;14.40;42.70
3281;DHT22;1652;51.318;6.202;2022-09-16T12:05:12;14.20;44.10
3281;DHT22;1652;51.318;6.202;2022-09-16T12:07:41;14.20;60.80
3281;DHT22;1652;51.318;6.202;2022-09-16T12:13:25;14.20;45.20
3281;DHT22;1652;51.318;6.202;2022-09-16T12:15:56;14.20;71.20
3281;DHT22;1652;51.318;6.202;2022-09-16T12:18:38;14.30;57.30
3281;DHT22;1652;51.318;6.202;2022-09-16T12:24:18;14.40;60.40
3281;DHT22;1652;51.318;6.202;2022-09-16T12:30:17;14.60;15.90
3281;DHT22;1652;51.318;6.202;2022-09-16T12:32:53;14.70;12.10
3281;DHT22;1652;51.318;6.202;2022-09-16T12:37:59;14.60;20.60
3281;DHT22;1652;51.318;6.202;2022-09-16T12:40:29;14.60;15.20
3281;DHT22;1652;51.318;6.202;2022-09-16T12:45:59;14.50;1.00
3281;DHT22;1652;51.318;6.202;2022-09-16T12:54:05;15.00;1.00
3281;DHT22;1652;51.318;6.202;2022-09-16T12:59:44;15.50;1.00
3281;DHT22;1652;51.318;6.202;2022-09-16T13:02:18;15.70;1.00
3281;DHT22;1652;51.318;6.202;2022-09-16T13:04:56;15.70;1.00
3281;DHT22;1652;51.318;6.202;2022-09-16T13:07:27;15.60;1.00
3281;DHT22;1652;51.318;6.202;2022-09-16T13:12:33;15.00;1.00
3281;DHT22;1652;51.318;6.202;2022-09-16T13:15:28;14.70;20.30
3281;DHT22;1652;51.318;6.202;2022-09-16T13:19:01;14.50;8.50
3281;DHT22;1652;51.318;6.202;2022-09-16T13:26:41;13.60;97.50
3281;DHT22;1652;51.318;6.202;2022-09-16T13:32:03;13.30;99.90
3281;DHT22;1652;51.318;6.202;2022-09-16T13:34:30;13.30;99.90
3281;DHT22;1652;51.318;6.202;2022-09-16T13:36:57;13.20;99.90
3281;DHT22;1652;51.318;6.202;2022-09-16T13:39:32;13.20;99.90
3281;DHT22;1652;51.318;6.202;2022-09-16T13:42:16;13.20;99.90
3281;DHT22;1652;51.318;6.202;2022-09-16T13:44:43;13.20;99.90
3281;DHT22;1652;51.318;6.202;2022-09-16T13:49:55;13.10;99.90
3281;DHT22;1652;51.318;6.202;2022-09-16T13:52:30;13.10;99.90
3281;DHT22;1652;51.318;6.202;2022-09-16T13:55:00;13.20;98.60
3281;DHT22;1652;51.318;6.202;2022-09-16T13:57:49;13.30;96.20
3281;DHT22;1652;51.318;6.202;2022-09-16T14:00:23;13.40;92.60
3281;DHT22;1652;51.318;6.202;2022-09-16T14:11:26;13.90;35.10
3281;DHT22;1652;51.318;6.202;2022-09-16T14:14:01;13.80;13.40
3281;DHT22;1652;51.318;6.202;2022-09-16T14:16:33;13.90;15.20
3281;DHT22;1652;51.318;6.202;2022-09-16T14:21:41;13.80;40.80
3281;DHT22;1652;51.318;6.202;2022-09-16T14:24:19;13.80;57.40
3281;DHT22;1652;51.318;6.202;2022-09-16T14:26:53;13.90;54.20
3281;DHT22;1652;51.318;6.202;2022-09-16T14:29:22;13.80;68.00
3281;DHT22;1652;51.318;6.202;2022-09-16T14:31:51;13.80;64.00
3281;DHT22;1652;51.318;6.202;2022-09-16T14:34:26;13.80;75.60
3281;DHT22;1652;51.318;6.202;2022-09-16T14:36:54;13.90;86.60
3281;DHT22;1652;51.318;6.202;2022-09-16T14:39:23;13.90;66.90
3281;DHT22;1652;51.318;6.202;2022-09-16T14:44:36;14.20;56.20
3281;DHT22;1652;51.318;6.202;2022-09-16T14:47:27;14.30;34.70
3281;DHT22;1652;51.318;6.202;2022-09-16T14:50:25;14.40;15.60
3281;DHT22;1652;51.318;6.202;2022-09-16T14:52:55;14.40;1.00
3281;DHT22;1652;51.318;6.202;2022-09-16T14:55:26;14.30;1.00
3281;DHT22;1652;51.318;6.202;2022-09-16T14:57:53;14.30;5.40
3281;DHT22;1652;51.318;6.202;2022-09-16T15:00:20;14.20;6.20
3281;DHT22;1652;51.318;6.202;2022-09-16T15:07:54;14.20;1.00
3281;DHT22;1652;51.318;6.202;2022-09-16T15:10:40;14.20;1.00
3281;DHT22;1652;51.318;6.202;2022-09-16T15:13:20;14.30;1.00
3281;DHT22;1652;51.318;6.202;2022-09-16T15:15:52;14.50;1.00
3281;DHT22;1652;51.318;6.202;2022-09-16T15:18:32;14.60;1.00
3281;DHT22;1652;51.318;6.202;2022-09-16T15:23:36;14.80;1.00
3281;DHT22;1652;51.318;6.202;2022-09-16T15:26:12;14.80;1.00
3281;DHT22;1652;51.318;6.202;2022-09-16T15:29:01;14.80;1.00
3281;DHT22;1652;51.318;6.202;2022-09-16T15:33:59;14.70;1.00
3281;DHT22;1652;51.318;6.202;2022-09-16T15:36:36;14.60;1.00
3281;DHT22;1652;51.318;6.202;2022-09-16T15:39:04;14.50;1.00
3281;DHT22;1652;51.318;6.202;2022-09-16T15:41:32;14.50;1.00
3281;DHT22;1652;51.318;6.202;2022-09-16T15:43:59;14.40;1.00
3281;DHT22;1652;51.318;6.202;2022-09-16T15:46:27;14.30;1.00
3281;DHT22;1652;51.318;6.202;2022-09-16T15:48:56;14.20;1.00
3281;DHT22;1652;51.318;6.202;2022-09-16T15:51:50;14.20;1.00
3281;DHT22;1652;51.318;6.202;2022-09-16T15:54:29;14.10;1.00
3281;DHT22;1652;51.318;6.202;2022-09-16T15:57:04;14.10;1.00
3281;DHT22;1652;51.318;6.202;2022-09-16T15:59:46;14.10;1.00
3281;DHT22;1652;51.318;6.202;2022-09-16T16:02:51;14.00;1.00
3281;DHT22;1652;51.318;6.202;2022-09-16T16:05:22;14.10;1.00
3281;DHT22;1652;51.318;6.202;2022-09-16T16:07:52;14.10;1.00
3281;DHT22;1652;51.318;6.202;2022-09-16T16:10:28;14.10;1.00
3281;DHT22;1652;51.318;6.202;2022-09-16T16:12:58;14.00;1.00
3281;DHT22;1652;51.318;6.202;2022-09-16T16:15:37;14.00;1.00
3281;DHT22;1652;51.318;6.202;2022-09-16T16:18:07;14.00;1.00
3281;DHT22;1652;51.318;6.202;2022-09-16T16:20:36;14.00;1.00
3281;DHT22;1652;51.318;6.202;2022-09-16T16:23:03;13.90;1.00
3281;DHT22;1652;51.318;6.202;2022-09-16T16:25:30;13.90;1.00
3281;DHT22;1652;51.318;6.202;2022-09-16T16:27:57;13.90;1.00
3281;DHT22;1652;51.318;6.202;2022-09-16T16:30:24;13.90;1.00
3281;DHT22;1652;51.318;6.202;2022-09-16T16:32:51;13.90;1.00
3281;DHT22;1652;51.318;6.202;2022-09-16T16:35:18;13.80;1.00
3281;DHT22;1652;51.318;6.202;2022-09-16T16:37:45;13.80;1.00
3281;DHT22;1652;51.318;6.202;2022-09-16T16:40:14;13.80;1.00
3281;DHT22;1652;51.318;6.202;2022-09-16T16:42:42;13.90;1.00
3281;DHT22;1652;51.318;6.202;2022-09-16T16:45:13;13.90;1.00
3281;DHT22;1652;51.318;6.202;2022-09-16T16:47:41;13.80;1.00
3281;DHT22;1652;51.318;6.202;2022-09-16T16:50:08;13.80;1.00
3281;DHT22;1652;51.318;6.202;2022-09-16T16:52:36;13.70;1.00
3281;DHT22;1652;51.318;6.202;2022-09-16T16:55:03;13.70;1.00
3281;DHT22;1652;51.318;6.202;2022-09-16T16:57:31;13.70;1.00
3281;DHT22;1652;51.318;6.202;2022-09-16T16:59:58;13.70;1.00
3281;DHT22;1652;51.318;6.202;2022-09-16T17:02:25;13.60;1.00
3281;DHT22;1652;51.318;6.202;2022-09-16T17:04:52;13.60;1.00
3281;DHT22;1652;51.318;6.202;2022-09-16T17:07:18;13.60;1.00
3281;DHT22;1652;51.318;6.202;2022-09-16T17:09:54;13.50;15.80
3281;DHT22;1652;51.318;6.202;2022-09-16T17:12:23;13.40;26.50
3281;DHT22;1652;51.318;6.202;2022-09-16T17:14:50;13.40;21.10
3281;DHT22;1652;51.318;6.202;2022-09-16T17:17:17;13.40;12.10
3281;DHT22;1652;51.318;6.202;2022-09-16T17:19:44;13.30;28.20
3281;DHT22;1652;51.318;6.202;2022-09-16T17:22:10;13.20;40.40
3281;DHT22;1652;51.318;6.202;2022-09-16T17:24:37;13.20;41.00
3281;DHT22;1652;51.318;6.202;2022-09-16T17:27:04;13.30;12.80
3281;DHT22;1652;51.318;6.202;2022-09-16T17:29:31;13.30;1.00
3281;DHT22;1652;51.318;6.202;2022-09-16T17:31:58;13.20;1.00
3281;DHT22;1652;51.318;6.202;2022-09-16T17:34:28;13.20;1.00
3281;DHT22;1652;51.318;6.202;2022-09-16T17:36:55;13.20;1.00
3281;DHT22;1652;51.318;6.202;2022-09-16T17:39:24;13.30;1.00
3281;DHT22;1652;51.318;6.202;2022-09-16T17:41:51;13.30;1.00
3281;DHT22;1652;51.318;6.202;2022-09-16T17:44:20;13.30;1.00
3281;DHT22;1652;51.318;6.202;2022-09-16T17:46:46;13.30;1.00
3281;DHT22;1652;51.318;6.202;2022-09-16T17:49:21;13.20;1.00
3281;DHT22;1652;51.318;6.202;2022-09-16T18:04:20;13.00;15.30
3281;DHT22;1652;51.318;6.202;2022-09-16T18:06:47;13.00;37.20
3281;DHT22;1652;51.318;6.202;2022-09-16T18:09:14;13.00;50.00
3281;DHT22;1652;51.318;6.202;2022-09-16T18:11:44;13.10;48.30
3281;DHT22;1652;51.318;6.202;2022-09-16T18:14:12;13.00;46.40
3281;DHT22;1652;51.318;6.202;2022-09-16T18:16:40;12.90;46.40
3281;DHT22;1652;51.318;6.202;2022-09-16T18:19:07;12.90;43.30
3281;DHT22;1652;51.318;6.202;2022-09-16T18:21:34;12.80;59.40
3281;DHT22;1652;51.318;6.202;2022-09-16T18:24:02;12.70;76.40
3281;DHT22;1652;51.318;6.202;2022-09-16T18:26:30;12.50;82.90
3281;DHT22;1652;51.318;6.202;2022-09-16T18:29:00;12.40;88.70
3281;DHT22;1652;51.318;6.202;2022-09-16T18:31:47;12.30;89.00
3281;DHT22;1652;51.318;6.202;2022-09-16T18:34:15;12.20;86.70
3281;DHT22;1652;51.318;6.202;2022-09-16T18:36:44;12.10;85.30
3281;DHT22;1652;51.318;6.202;2022-09-16T18:39:13;12.00;80.90
3281;DHT22;1652;51.318;6.202;2022-09-16T18:41:41;12.00;75.80
3281;DHT22;1652;51.318;6.202;2022-09-16T18:44:17;11.90;68.70
3281;DHT22;1652;51.318;6.202;2022-09-16T18:46:49;11.90;59.60
3281;DHT22;1652;51.318;6.202;2022-09-16T18:49:18;11.80;64.30
3281;DHT22;1652;51.318;6.202;2022-09-16T18:51:50;11.80;55.10
3281;DHT22;1652;51.318;6.202;2022-09-16T18:54:21;11.80;67.30
3281;DHT22;1652;51.318;6.202;2022-09-16T18:56:51;11.80;51.20
3281;DHT22;1652;51.318;6.202;2022-09-16T18:59:23;11.90;56.00
3281;DHT22;1652;51.318;6.202;2022-09-16T19:01:57;11.90;64.00
3281;DHT22;1652;51.318;6.202;2022-09-16T19:04:28;11.90;49.60
3281;DHT22;1652;51.318;6.202;2022-09-16T19:06:56;11.90;49.40
3281;DHT22;1652;51.318;6.202;2022-09-16T19:09:25;11.90;39.20
3281;DHT22;1652;51.318;6.202;2022-09-16T19:11:52;11.80;49.30
3281;DHT22;1652;51.318;6.202;2022-09-16T19:14:20;11.70;38.80
3281;DHT22;1652;51.318;6.202;2022-09-16T19:16:51;11.60;43.50
3281;DHT22;1652;51.318;6.202;2022-09-16T19:19:19;11.60;55.50
3281;DHT22;1652;51.318;6.202;2022-09-16T19:21:46;11.60;51.00
3281;DHT22;1652;51.318;6.202;2022-09-16T19:24:15;11.50;69.80
3281;DHT22;1652;51.318;6.202;2022-09-16T19:26:44;11.40;76.10
3281;DHT22;1652;51.318;6.202;2022-09-16T19:29:12;11.40;80.60
3281;DHT22;1652;51.318;6.202;2022-09-16T19:31:40;11.30;84.90
3281;DHT22;1652;51.318;6.202;2022-09-16T19:34:08;11.30;90.70
3281;DHT22;1652;51.318;6.202;2022-09-16T19:36:35;11.20;91.40